Time;durP1;ratioP1;P1;durP2;ratioP2;P2;SDS_P1;SDS_P2;PMS_P1;PMS_P2;Temp;Humidity;BMP_temperature;BMP_pressure;BME280_temperature;BME280_humidity;BME280_pressure;Samples;Min_cycle;Max_cycle;Signal;HPM_P1;HPM_P2
2023/03/30 00:03:27;;;;;;;;;;;13.60;47.70;;;12.05;49.37;100756.47;12258702;19;20341;-89
2023/03/30 00:07:29;;;;;;;;;;;13.60;47.70;;;12.21;49.43;100782.56;12257887;19;20360;-88
2023/03/30 00:11:32;;;;;;;;;;;13.60;47.80;;;12.03;49.43;100742.63;12260631;19;19925;-89
2023/03/30 00:15:34;;;;;;;;;;;13.50;47.80;;;12.27;49.48;100783.00;12262543;19;20344;-88
2023/03/30 00:19:36;;;;;;;;;;;13.60;47.90;;;12.08;49.33;100754.50;12255266;19;19915;-88
2023/03/30 00:23:38;;;;;;;;;;;13.50;47.80;;;12.24;49.39;100785.81;12255668;19;19919;-88
2023/03/30 00:27:40;;;;;;;;;;;13.60;47.80;;;11.99;49.55;100736.75;12258780;19;19911;-88
2023/03/30 00:31:42;;;;;;;;;;;13.50;47.80;;;12.22;49.34;100768.53;12257764;19;19922;-88
2023/03/30 00:35:53;;;;;;;;;;;13.50;48.00;;;12.16;49.72;100762.72;12256932;19;19918;-88
2023/03/30 00:39:55;;;;;;;;;;;13.50;47.90;;;12.16;49.55;100759.28;12254760;19;19923;-88
2023/03/30 00:44:02;;;;;;;;;;;13.50;48.00;;;12.18;49.66;100762.66;12256616;19;19915;-88
2023/03/30 00:48:14;;;;;;;;;;;13.50;48.00;;;12.18;49.63;100754.78;12255671;19;19989;-88
2023/03/30 00:52:23;;;;;;;;;;;13.50;48.10;;;12.08;49.60;100737.97;12257945;19;20349;-88
2023/03/30 00:56:28;;;;;;;;;;;13.40;48.20;;;11.80;49.51;100689.91;12256127;19;19911;-88
2023/03/30 01:00:29;;;;;;;;;;;13.40;48.10;;;11.98;49.58;100708.06;12254119;19;19923;-88
2023/03/30 01:04:31;;;;;;;;;;;13.40;48.20;;;12.00;49.57;100716.66;12248338;19;20281;-88
2023/03/30 01:08:33;;;;;;;;;;;13.40;48.20;;;12.07;49.48;100721.41;12248959;19;19925;-88
2023/03/30 01:12:35;;;;;;;;;;;13.40;48.10;;;11.91;49.77;100695.34;12256126;19;19914;-88
2023/03/30 01:17:01;;;;;;;;;;;13.30;48.10;;;11.95;49.70;100706.47;12256037;19;19914;-89
2023/03/30 01:21:30;;;;;;;;;;;13.20;48.20;;;11.91;49.44;100694.50;12258643;19;20329;-88
2023/03/30 01:25:35;;;;;;;;;;;13.20;48.30;;;11.85;49.61;100682.59;12253280;19;20556;-88
2023/03/30 01:29:40;;;;;;;;;;;13.10;48.20;;;11.75;49.78;100671.03;12252344;19;20339;-89
2023/03/30 01:34:07;;;;;;;;;;;13.10;48.40;;;11.82;49.86;100681.94;12254201;19;19919;-88
2023/03/30 01:38:43;;;;;;;;;;;13.00;48.40;;;11.79;49.66;100674.28;12250912;19;19907;-88
2023/03/30 01:43:02;;;;;;;;;;;13.00;48.50;;;11.75;49.82;100660.56;12253689;19;20362;-88
2023/03/30 01:47:34;;;;;;;;;;;13.00;48.60;;;11.70;49.77;100646.91;12252203;19;19919;-88
2023/03/30 01:51:41;;;;;;;;;;;13.00;48.60;;;11.66;49.67;100638.41;12252852;19;19919;-88
2023/03/30 01:55:51;;;;;;;;;;;12.90;48.50;;;11.58;49.78;100626.72;12251894;19;19926;-88
2023/03/30 02:00:00;;;;;;;;;;;12.90;48.80;;;11.54;49.75;100604.34;12248580;19;19915;-88
2023/03/30 02:04:03;;;;;;;;;;;12.90;48.80;;;11.46;49.75;100583.88;12249204;19;19923;-88
2023/03/30 02:08:08;;;;;;;;;;;12.80;48.80;;;11.38;49.87;100584.34;12249167;19;19927;-88
2023/03/30 02:12:12;;;;;;;;;;;12.80;48.80;;;11.50;50.01;100614.13;12248999;19;19921;-88
2023/03/30 02:16:17;;;;;;;;;;;12.70;48.90;;;11.57;49.82;100620.66;12250427;19;19926;-88
2023/03/30 02:20:20;;;;;;;;;;;12.80;48.90;;;11.53;49.95;100606.09;12251349;19;19911;-88
2023/03/30 02:24:27;;;;;;;;;;;12.80;49.00;;;11.36;50.15;100585.38;12250336;19;19933;-88
2023/03/30 02:28:28;;;;;;;;;;;12.80;49.10;;;11.60;50.07;100614.41;12248529;19;20325;-88
2023/03/30 02:32:38;;;;;;;;;;;12.80;49.00;;;11.57;50.12;100593.69;12250563;19;20348;-88
2023/03/30 02:37:08;;;;;;;;;;;12.80;49.20;;;11.58;50.13;100596.19;12250077;19;20357;-88
2023/03/30 02:41:41;;;;;;;;;;;12.90;49.10;;;11.61;50.09;100596.03;12250629;19;19931;-88
2023/03/30 02:46:05;;;;;;;;;;;12.80;49.20;;;11.54;49.93;100578.19;12248339;19;19939;-88
2023/03/30 02:50:16;;;;;;;;;;;12.90;49.30;;;11.60;50.25;100578.63;12250039;19;20321;-88
2023/03/30 02:54:25;;;;;;;;;;;12.80;49.30;;;11.61;50.03;100576.84;12249569;19;19922;-88
2023/03/30 02:58:55;;;;;;;;;;;12.80;49.40;;;11.48;50.29;100554.09;12248828;19;19923;-88
2023/03/30 03:03:01;;;;;;;;;;;12.80;49.40;;;11.56;50.24;100557.97;12248599;19;19925;-88
2023/03/30 03:07:05;;;;;;;;;;;12.80;49.30;;;11.50;50.10;100552.22;12248400;19;19926;-88
2023/03/30 03:11:08;;;;;;;;;;;12.80;49.30;;;11.48;50.20;100543.63;12259491;19;19927;-88
2023/03/30 03:15:11;;;;;;;;;;;12.80;49.40;;;11.48;50.19;100535.78;12263015;19;19978;-88
2023/03/30 03:19:22;;;;;;;;;;;12.80;49.40;;;11.54;50.36;100525.88;12258292;19;19952;-88
2023/03/30 03:23:25;;;;;;;;;;;12.80;49.40;;;11.56;50.45;100535.31;12261397;19;19922;-88
2023/03/30 03:27:30;;;;;;;;;;;12.90;49.40;;;11.48;50.37;100519.25;12259359;19;19915;-87
2023/03/30 03:31:55;;;;;;;;;;;12.80;49.40;;;11.49;50.30;100513.91;12260378;19;20339;-88
2023/03/30 03:36:00;;;;;;;;;;;12.80;49.30;;;11.59;50.34;100534.28;12259877;19;19919;-88
2023/03/30 03:40:06;;;;;;;;;;;12.80;49.50;;;11.54;50.44;100510.19;12258640;19;19941;-88
2023/03/30 03:44:09;;;;;;;;;;;12.80;49.50;;;11.54;50.40;100510.19;12258102;19;19934;-88
2023/03/30 03:48:12;;;;;;;;;;;12.80;49.70;;;11.48;50.45;100503.56;12257801;19;20657;-88
2023/03/30 03:52:17;;;;;;;;;;;12.80;49.50;;;11.27;50.34;100453.44;12260193;19;19931;-88
2023/03/30 03:56:20;;;;;;;;;;;12.80;49.80;;;11.52;50.50;100484.94;12259960;19;19986;-88
2023/03/30 04:00:22;;;;;;;;;;;12.80;49.80;;;11.38;50.46;100464.06;12260949;19;19918;-88
2023/03/30 04:04:27;;;;;;;;;;;12.80;49.80;;;11.51;50.40;100475.44;12257813;19;19919;-88
2023/03/30 04:08:29;;;;;;;;;;;12.90;49.70;;;11.41;50.63;100453.41;12257731;19;19923;-88
2023/03/30 04:12:39;;;;;;;;;;;12.80;50.00;;;11.51;50.55;100464.16;12259088;19;19942;-88
2023/03/30 04:17:01;;;;;;;;;;;12.80;49.80;;;11.52;50.50;100464.03;12258335;19;19926;-88
2023/03/30 04:21:16;;;;;;;;;;;12.80;49.80;;;11.42;50.53;100422.88;12258537;19;19919;-88
2023/03/30 04:25:24;;;;;;;;;;;12.80;49.60;;;11.45;50.65;100427.91;12258647;19;19919;-88
2023/03/30 04:29:29;;;;;;;;;;;12.80;49.80;;;11.49;50.58;100435.47;12256784;19;20368;-88
2023/03/30 04:33:52;;;;;;;;;;;12.80;49.90;;;11.17;50.54;100379.16;12250065;19;19914;-88
2023/03/30 04:38:12;;;;;;;;;;;12.80;49.80;;;11.44;50.57;100413.16;12255099;19;19914;-88
2023/03/30 04:42:14;;;;;;;;;;;12.80;49.90;;;11.45;50.64;100426.16;12257233;19;19911;-88
2023/03/30 04:46:49;;;;;;;;;;;12.70;49.70;;;11.49;50.78;100432.84;12255594;19;19957;-88
2023/03/30 04:51:17;;;;;;;;;;;12.70;49.90;;;11.37;50.71;100409.25;12254698;19;20332;-88
2023/03/30 04:55:47;;;;;;;;;;;12.70;49.80;;;11.49;50.76;100435.47;12256695;19;19919;-88
2023/03/30 05:00:16;;;;;;;;;;;12.80;49.90;;;11.51;50.96;100420.53;12253203;19;20244;-88
2023/03/30 05:04:44;;;;;;;;;;;12.80;49.80;;;11.43;50.91;100409.72;12252753;19;19994;-88
2023/03/30 05:08:55;;;;;;;;;;;12.80;49.90;;;11.43;50.94;100419.34;12251807;19;20320;-88
2023/03/30 05:13:16;;;;;;;;;;;12.80;49.90;;;11.41;50.91;100422.03;12257022;19;19921;-88
2023/03/30 05:17:37;;;;;;;;;;;12.80;49.90;;;11.51;50.85;100412.69;12259436;19;19978;-88
2023/03/30 05:21:51;;;;;;;;;;;12.80;50.00;;;11.51;50.81;100404.00;12258311;19;19926;-88
2023/03/30 05:26:11;;;;;;;;;;;12.80;50.20;;;11.50;50.88;100404.91;12257007;19;19911;-88
2023/03/30 05:30:54;;;;;;;;;;;12.80;51.10;;;11.41;51.16;100371.53;12253337;19;19920;-88
2023/03/30 05:35:15;;;;;;;;;;;12.80;51.10;;;11.36;50.99;100348.28;12250167;19;19919;-87
2023/03/30 05:39:38;;;;;;;;;;;12.80;50.60;;;11.51;51.17;100351.72;12245136;19;19919;-88
2023/03/30 05:44:06;;;;;;;;;;;12.80;51.50;;;11.41;51.18;100333.16;12246454;19;19925;-88
2023/03/30 05:48:27;;;;;;;;;;;12.80;51.00;;;11.42;51.14;100340.06;12249067;19;19983;-88
2023/03/30 05:52:40;;;;;;;;;;;12.80;50.80;;;11.57;51.11;100359.13;12246814;19;20342;-88
2023/03/30 05:57:17;;;;;;;;;;;12.90;50.60;;;11.59;51.09;100341.59;12242327;19;19923;-87
2023/03/30 06:01:29;;;;;;;;;;;12.90;50.60;;;11.61;51.30;100349.31;12244572;19;19926;-87
2023/03/30 06:05:34;;;;;;;;;;;12.90;50.60;;;11.62;51.25;100340.53;12245579;19;19947;-88
2023/03/30 06:09:36;;;;;;;;;;;13.00;51.40;;;11.67;51.18;100359.38;12243577;19;19918;-88
2023/03/30 06:13:45;;;;;;;;;;;12.90;51.50;;;11.61;51.22;100333.63;12247901;19;20265;-88
2023/03/30 06:17:47;;;;;;;;;;;13.00;51.50;;;11.71;51.19;100319.84;12247037;19;19919;-89
2023/03/30 06:21:49;;;;;;;;;;;13.00;51.40;;;11.79;51.25;100321.94;12249863;19;20243;-88
2023/03/30 06:26:06;;;;;;;;;;;13.10;51.20;;;11.75;51.33;100296.94;12243053;19;19919;-88
2023/03/30 06:30:11;;;;;;;;;;;13.10;51.20;;;11.83;51.35;100312.97;12246026;19;19911;-88
2023/03/30 06:34:15;;;;;;;;;;;13.10;50.80;;;11.74;51.40;100280.38;12244994;19;19918;-88
2023/03/30 06:38:18;;;;;;;;;;;13.20;51.20;;;11.64;51.29;100260.22;12245189;19;19915;-87
2023/03/30 06:42:19;;;;;;;;;;;13.20;50.80;;;11.85;51.28;100281.44;12245198;19;19927;-88
2023/03/30 06:46:45;;;;;;;;;;;13.20;50.80;;;11.93;51.32;100292.25;12256403;19;19922;-88
2023/03/30 06:50:48;;;;;;;;;;;13.30;50.80;;;12.00;51.34;100303.16;12260328;19;19922;-88
2023/03/30 06:54:56;;;;;;;;;;;13.30;51.00;;;12.07;51.32;100301.78;12258091;19;20332;-88
2023/03/30 06:58:58;;;;;;;;;;;13.40;51.70;;;12.13;51.48;100311.84;12256967;19;20337;-88
2023/03/30 07:03:00;;;;;;;;;;;13.40;51.00;;;12.08;51.40;100287.78;12260650;19;19919;-88
2023/03/30 07:07:07;;;;;;;;;;;13.50;52.00;;;12.15;51.54;100282.03;12260479;19;19919;-87
2023/03/30 07:11:09;;;;;;;;;;;13.50;51.00;;;12.15;51.52;100282.03;12263113;19;19971;-87
2023/03/30 07:15:14;;;;;;;;;;;13.50;50.90;;;12.17;51.41;100274.03;12261370;19;19915;-87
2023/03/30 07:19:16;;;;;;;;;;;13.50;51.00;;;12.09;51.55;100244.94;12258555;19;19941;-87
2023/03/30 07:23:17;;;;;;;;;;;13.60;51.20;;;12.31;51.48;100271.31;12260408;19;19915;-87
2023/03/30 07:27:23;;;;;;;;;;;13.70;51.00;;;12.43;51.55;100268.78;12258358;19;20276;-88
2023/03/30 07:31:26;;;;;;;;;;;13.70;52.10;;;12.45;51.51;100256.41;12259284;19;20287;-88
2023/03/30 07:35:28;;;;;;;;;;;13.80;52.00;;;12.29;51.73;100226.09;12261917;19;19919;-88
2023/03/30 07:39:32;;;;;;;;;;;13.80;51.40;;;12.37;51.57;100223.75;12258012;19;19922;-87
2023/03/30 07:43:35;;;;;;;;;;;13.90;51.80;;;12.66;51.73;100249.63;12257895;19;19925;-88
2023/03/30 07:47:37;;;;;;;;;;;14.00;51.40;;;12.74;51.71;100246.47;12257473;19;19925;-89
2023/03/30 07:51:39;;;;;;;;;;;14.10;52.50;;;12.84;51.77;100243.09;12259997;19;19926;-89
2023/03/30 07:56:04;;;;;;;;;;;14.10;52.30;;;12.81;51.91;100206.63;12254564;19;19919;-89
2023/03/30 08:00:15;;;;;;;;;;;14.30;51.90;;;13.15;51.73;100230.38;12255394;19;19915;-89
2023/03/30 08:04:37;;;;;;;;;;;14.50;53.40;;;13.32;51.92;100221.28;12257334;19;20289;-88
2023/03/30 08:08:39;;;;;;;;;;;14.60;53.10;;;13.58;51.99;100229.78;12256585;19;19918;-88
2023/03/30 08:12:42;;;;;;;;;;;14.80;53.60;;;13.47;51.96;100179.94;12258676;19;19925;-88
2023/03/30 08:16:43;;;;;;;;;;;15.00;52.60;;;14.02;52.06;100236.06;12258854;19;19927;-88
2023/03/30 08:20:49;;;;;;;;;;;15.20;52.40;;;14.19;52.13;100215.53;12259162;19;19923;-88
2023/03/30 08:24:51;;;;;;;;;;;15.50;52.60;;;14.43;52.06;100213.59;12255918;19;19945;-87
2023/03/30 08:28:53;;;;;;;;;;;15.70;52.20;;;14.43;51.90;100181.22;12254026;19;19940;-88
2023/03/30 08:32:55;;;;;;;;;;;15.90;52.10;;;14.76;52.15;100215.31;12256648;19;19918;-88
2023/03/30 08:36:57;;;;;;;;;;;16.10;52.00;;;15.08;52.29;100213.66;12254897;19;19986;-88
2023/03/30 08:40:58;;;;;;;;;;;16.40;52.10;;;15.23;52.12;100192.19;12256434;19;20329;-88
2023/03/30 08:45:04;;;;;;;;;;;16.60;51.60;;;15.45;52.19;100199.13;12254238;19;19938;-88
2023/03/30 08:49:12;;;;;;;;;;;16.80;51.50;;;15.62;52.26;100178.44;12251789;19;19944;-88
2023/03/30 08:53:14;;;;;;;;;;;17.10;51.50;;;15.75;52.21;100165.09;12253232;19;19938;-87
2023/03/30 08:57:45;;;;;;;;;;;17.30;51.30;;;16.03;52.29;100182.78;12252678;19;20261;-87
2023/03/30 09:02:00;;;;;;;;;;;17.50;51.30;;;16.34;52.35;100199.41;12254831;19;20230;-88
2023/03/30 09:06:54;;;;;;;;;;;17.80;51.10;;;16.46;52.16;100191.38;12250148;19;19914;-87
2023/03/30 09:10:58;;;;;;;;;;;18.00;51.00;;;16.68;52.07;100188.50;12248871;19;19941;-87
2023/03/30 09:15:02;;;;;;;;;;;18.20;50.70;;;16.78;52.09;100175.34;12252572;19;19919;-88
2023/03/30 09:19:08;;;;;;;;;;;18.40;50.60;;;16.91;52.21;100180.38;12248410;19;19938;-87
2023/03/30 09:23:18;;;;;;;;;;;18.50;50.40;;;16.94;52.25;100169.53;12253635;19;19915;-88
2023/03/30 09:27:21;;;;;;;;;;;18.60;50.20;;;17.15;51.95;100193.97;12252419;19;19979;-87
2023/03/30 09:31:24;;;;;;;;;;;18.70;50.10;;;17.21;52.03;100176.72;12252677;19;19978;-88
2023/03/30 09:35:33;;;;;;;;;;;18.70;50.00;;;17.31;51.87;100181.97;12252823;19;19970;-88
2023/03/30 09:39:35;;;;;;;;;;;18.80;50.00;;;17.26;51.95;100163.94;12248494;19;19911;-88
2023/03/30 09:43:45;;;;;;;;;;;18.90;49.90;;;17.35;51.67;100162.25;12249391;19;19919;-87
2023/03/30 09:47:46;;;;;;;;;;;18.90;49.90;;;17.39;51.57;100166.25;12250038;19;19922;-87
2023/03/30 09:52:03;;;;;;;;;;;18.90;50.00;;;17.52;51.89;100187.91;12256651;19;19931;-88
2023/03/30 09:56:16;;;;;;;;;;;19.00;49.70;;;17.54;51.80;100167.47;12257009;19;19923;-88
2023/03/30 10:00:32;;;;;;;;;;;19.10;49.80;;;17.58;51.73;100179.44;12255521;19;19974;-87
2023/03/30 10:04:45;;;;;;;;;;;19.10;49.70;;;17.68;51.70;100179.38;12255113;19;19915;-88
2023/03/30 10:08:47;;;;;;;;;;;19.10;49.70;;;17.71;51.69;100184.38;12254004;19;19922;-88
2023/03/30 10:12:49;;;;;;;;;;;19.10;49.60;;;17.72;51.58;100187.88;12256437;19;20349;-88
2023/03/30 10:16:51;;;;;;;;;;;19.10;49.50;;;17.46;51.31;100143.59;12252108;19;19915;-87
2023/03/30 10:21:03;;;;;;;;;;;19.10;49.50;;;17.67;51.57;100175.91;12250914;19;19907;-88
2023/03/30 10:25:08;;;;;;;;;;;19.10;49.50;;;17.58;51.37;100166.22;12249539;19;19938;-88
2023/03/30 10:29:15;;;;;;;;;;;19.20;49.60;;;17.74;51.49;100188.53;12249494;19;19915;-88
2023/03/30 10:33:17;;;;;;;;;;;19.10;49.50;;;17.73;51.23;100194.81;12251200;19;19935;-88
2023/03/30 10:37:31;;;;;;;;;;;19.20;49.50;;;17.80;51.12;100198.59;12249530;19;19929;-88
2023/03/30 10:41:35;;;;;;;;;;;19.10;49.40;;;17.80;51.34;100194.13;12251816;19;19923;-88
2023/03/30 10:45:46;;;;;;;;;;;19.10;49.40;;;17.68;51.55;100174.94;12248803;19;20319;-88
2023/03/30 10:49:54;;;;;;;;;;;19.10;49.40;;;17.77;51.07;100183.81;12245608;19;19929;-88
2023/03/30 10:54:10;;;;;;;;;;;19.10;49.50;;;17.69;51.33;100171.34;12250244;19;19946;-88
2023/03/30 10:58:21;;;;;;;;;;;19.10;49.50;;;17.77;51.38;100188.25;12244176;19;19919;-88
2023/03/30 11:02:38;;;;;;;;;;;19.00;49.50;;;17.77;51.28;100178.53;12250272;19;19933;-88
2023/03/30 11:06:41;;;;;;;;;;;19.00;49.60;;;17.77;51.20;100177.69;12244867;19;19923;-88
2023/03/30 11:10:46;;;;;;;;;;;19.00;49.80;;;17.73;51.21;100168.41;12249649;19;20328;-87
2023/03/30 11:15:01;;;;;;;;;;;19.00;49.70;;;17.83;51.04;100172.69;12248715;19;19914;-87
2023/03/30 11:19:09;;;;;;;;;;;19.10;49.80;;;17.79;51.03;100162.56;12243548;19;19942;-88
2023/03/30 11:23:19;;;;;;;;;;;19.10;49.80;;;17.64;51.20;100131.31;12245929;19;19925;-88
2023/03/30 11:27:21;;;;;;;;;;;19.10;49.80;;;17.93;50.88;100183.25;12245556;19;20324;-87
2023/03/30 11:31:22;;;;;;;;;;;19.10;49.80;;;17.96;51.01;100176.81;12255114;19;19967;-88
2023/03/30 11:35:45;;;;;;;;;;;19.10;49.80;;;17.97;51.17;100168.75;12258727;19;19914;-87
2023/03/30 11:39:53;;;;;;;;;;;19.20;49.90;;;17.90;50.92;100157.09;12255983;19;19923;-87
2023/03/30 11:43:55;;;;;;;;;;;19.20;49.90;;;17.87;51.05;100149.47;12255760;19;19935;-87
2023/03/30 11:48:22;;;;;;;;;;;19.20;49.90;;;18.06;51.28;100167.03;12254030;19;19990;-88
2023/03/30 11:52:29;;;;;;;;;;;19.20;49.90;;;18.04;51.08;100153.16;12257437;19;20245;-88
2023/03/30 11:56:40;;;;;;;;;;;19.30;50.00;;;18.13;50.87;100146.97;12258544;19;20329;-88
2023/03/30 12:01:03;;;;;;;;;;;19.30;50.00;;;18.16;51.14;100135.28;12256015;19;19925;-88
2023/03/30 12:05:29;;;;;;;;;;;19.30;50.00;;;18.20;51.16;100118.13;12265052;19;19914;-88
2023/03/30 12:09:42;;;;;;;;;;;19.40;50.00;;;18.25;51.25;100114.06;12253610;19;19923;-87
2023/03/30 12:13:43;;;;;;;;;;;19.40;50.10;;;18.29;51.00;100099.56;12256079;19;20343;-88
2023/03/30 12:17:53;;;;;;;;;;;19.50;50.20;;;18.39;51.21;100096.88;12254264;19;19923;-87
2023/03/30 12:22:06;;;;;;;;;;;19.60;50.20;;;18.33;51.29;100065.72;12257320;19;19918;-88
2023/03/30 12:26:20;;;;;;;;;;;19.60;50.20;;;18.60;51.01;100079.84;12250112;19;19982;-87
2023/03/30 12:30:53;;;;;;;;;;;19.70;50.40;;;18.73;50.99;100049.38;12257346;19;19967;-88
2023/03/30 12:34:56;;;;;;;;;;;19.80;50.50;;;18.85;51.14;100042.06;12253338;19;19915;-88
2023/03/30 12:39:01;;;;;;;;;;;20.00;50.40;;;18.99;50.88;100040.66;12251372;19;19983;-88
2023/03/30 12:43:23;;;;;;;;;;;20.10;50.30;;;19.08;51.33;100026.47;12257271;19;19918;-88
2023/03/30 12:47:49;;;;;;;;;;;20.30;50.20;;;19.18;51.07;100015.78;12260981;19;20345;-88
2023/03/30 12:52:12;;;;;;;;;;;20.50;50.10;;;19.45;50.96;100006.81;12262154;19;19923;-89
2023/03/30 12:56:47;;;;;;;;;;;20.60;50.10;;;19.58;50.95;100003.72;12258255;19;19915;-88
2023/03/30 13:01:26;;;;;;;;;;;20.70;49.90;;;19.77;51.13;100007.94;12260050;19;19915;-88
2023/03/30 13:05:34;;;;;;;;;;;20.90;50.00;;;19.78;50.67;99983.09;12257260;19;19915;-88
2023/03/30 13:09:59;;;;;;;;;;;21.00;49.70;;;19.89;50.82;99980.13;12254919;19;19978;-88
2023/03/30 13:14:15;;;;;;;;;;;21.20;49.60;;;19.99;50.79;99977.34;12257540;19;19956;-89
2023/03/30 13:18:17;;;;;;;;;;;21.20;49.40;;;20.05;50.61;99961.59;12254463;19;19922;-88
2023/03/30 13:22:25;;;;;;;;;;;21.30;49.30;;;20.09;51.00;99959.44;12255731;19;19994;-88
2023/03/30 13:26:37;;;;;;;;;;;21.30;49.40;;;20.16;50.68;99952.47;12253014;19;20260;-87
2023/03/30 13:30:39;;;;;;;;;;;21.40;48.80;;;20.22;50.81;99946.50;12254387;19;20299;-88
2023/03/30 13:35:23;;;;;;;;;;;21.50;49.10;;;20.18;50.81;99942.56;12254487;19;19907;-88
2023/03/30 13:39:29;;;;;;;;;;;21.50;49.10;;;20.25;50.64;99953.31;12249445;19;19974;-88
2023/03/30 13:44:09;;;;;;;;;;;21.50;48.70;;;20.34;50.48;99955.78;12251723;19;19926;-88
2023/03/30 13:48:45;;;;;;;;;;;21.60;49.00;;;20.36;50.49;99941.53;12247194;19;19910;-88
2023/03/30 13:52:48;;;;;;;;;;;21.60;48.60;;;20.34;50.55;99939.06;12250815;19;20241;-88
2023/03/30 13:56:58;;;;;;;;;;;21.60;48.80;;;20.42;50.71;99943.53;12251474;19;19923;-88
2023/03/30 14:01:09;;;;;;;;;;;21.60;48.60;;;20.42;50.78;99936.41;12252195;19;19938;-88
2023/03/30 14:05:20;;;;;;;;;;;21.60;48.60;;;20.43;50.35;99942.53;12247844;19;19914;-90
2023/03/30 14:09:24;;;;;;;;;;;21.70;48.70;;;20.46;50.72;99948.31;12247219;19;19918;-89
2023/03/30 14:13:26;;;;;;;;;;;21.70;48.20;;;20.48;50.51;99966.72;12248976;19;19910;-89
2023/03/30 14:17:27;;;;;;;;;;;21.70;47.80;;;20.43;50.59;99958.44;12247770;19;20007;-89
2023/03/30 14:21:30;;;;;;;;;;;21.70;48.40;;;20.42;50.16;100034.53;12251099;19;19915;-89
2023/03/30 14:25:37;;;;;;;;;;;21.60;47.70;;;20.20;50.07;100048.41;12248419;19;20261;-89
2023/03/30 14:29:44;;;;;;;;;;;21.50;48.00;;;19.92;50.24;100077.03;12241514;19;20272;-87
2023/03/30 14:33:46;;;;;;;;;;;21.30;47.90;;;19.25;49.92;100069.75;12248521;19;19923;-87
2023/03/30 14:37:48;;;;;;;;;;;20.90;48.00;;;18.99;50.23;100088.28;12238553;19;19919;-87
2023/03/30 14:41:50;;;;;;;;;;;20.50;48.20;;;18.62;50.07;100105.16;12245973;19;19944;-87
2023/03/30 14:45:55;;;;;;;;;;;20.10;48.40;;;18.42;50.29;100101.84;12243036;19;20272;-87
2023/03/30 14:49:58;;;;;;;;;;;19.70;48.70;;;18.28;50.16;100092.63;12243313;19;19943;-87
2023/03/30 14:54:00;;;;;;;;;;;19.40;48.90;;;17.92;50.30;100052.94;12247525;19;19919;-87
2023/03/30 14:58:03;;;;;;;;;;;19.20;49.20;;;17.96;50.13;100055.28;12243297;19;19947;-86
2023/03/30 15:02:15;;;;;;;;;;;19.00;49.40;;;18.00;50.08;100072.50;12240812;19;19923;-86
2023/03/30 15:06:21;;;;;;;;;;;18.90;49.60;;;17.89;50.24;100086.75;12249249;19;19933;-86
2023/03/30 15:10:34;;;;;;;;;;;18.70;49.70;;;17.86;50.12;100097.63;12258537;19;20353;-87
2023/03/30 15:14:38;;;;;;;;;;;18.70;49.90;;;17.69;50.02;100094.75;12249677;19;19919;-88
2023/03/30 15:18:40;;;;;;;;;;;18.60;50.00;;;17.61;50.19;100093.81;12251253;19;19917;-87
2023/03/30 15:22:50;;;;;;;;;;;18.50;50.10;;;17.59;50.21;100103.69;12255373;19;19949;-86
2023/03/30 15:26:54;;;;;;;;;;;18.50;50.60;;;17.55;50.03;100100.53;12251287;19;19919;-87
2023/03/30 15:30:57;;;;;;;;;;;18.40;50.40;;;17.48;50.23;100096.78;12259372;19;19925;-87
2023/03/30 15:35:05;;;;;;;;;;;18.40;50.30;;;17.37;50.18;100094.31;12260656;19;20354;-87
2023/03/30 15:39:21;;;;;;;;;;;18.30;50.40;;;17.36;50.45;100114.63;12246336;19;20011;-87
2023/03/30 15:43:28;;;;;;;;;;;18.20;50.90;;;17.18;50.50;100103.97;12258488;19;19935;-88
2023/03/30 15:47:30;;;;;;;;;;;18.10;50.40;;;17.09;50.30;100114.53;12257864;19;19982;-88
2023/03/30 15:51:38;;;;;;;;;;;18.00;50.60;;;16.99;50.31;100112.75;12251070;19;19946;-87
2023/03/30 15:55:42;;;;;;;;;;;17.90;50.50;;;16.79;50.20;100111.91;12255480;19;20272;-87
2023/03/30 16:00:15;;;;;;;;;;;17.70;50.40;;;16.71;50.67;100117.03;12243712;19;19931;-87
2023/03/30 16:04:19;;;;;;;;;;;17.60;50.60;;;16.62;50.52;100111.78;12240328;19;20301;-87
2023/03/30 16:08:20;;;;;;;;;;;17.60;50.60;;;16.54;50.51;100108.00;12244513;19;20393;-88
2023/03/30 16:12:27;;;;;;;;;;;17.40;50.70;;;16.40;50.79;100107.59;12249764;19;20252;-87
2023/03/30 16:16:28;;;;;;;;;;;17.40;50.80;;;16.42;50.74;100117.03;12245870;19;19974;-87
2023/03/30 16:20:31;;;;;;;;;;;17.30;50.80;;;16.28;50.69;100107.72;12249909;19;19930;-87
2023/03/30 16:24:33;;;;;;;;;;;17.20;50.80;;;16.24;50.79;100103.69;12249503;19;19975;-88
2023/03/30 16:28:35;;;;;;;;;;;17.20;50.90;;;16.21;50.56;100103.97;12248071;19;19918;-87
2023/03/30 16:32:36;;;;;;;;;;;17.10;51.00;;;15.96;50.86;100070.22;12249922;19;19926;-87
2023/03/30 16:36:37;;;;;;;;;;;17.10;51.30;;;16.15;50.83;100101.88;12248060;19;20337;-87
2023/03/30 16:40:41;;;;;;;;;;;17.10;51.10;;;16.10;50.76;100104.09;12250626;19;19925;-87
2023/03/30 16:44:42;;;;;;;;;;;17.00;51.20;;;16.00;50.68;100090.06;12247603;19;20336;-87
2023/03/30 16:48:45;;;;;;;;;;;17.00;51.30;;;16.14;50.83;100114.19;12247076;19;19954;-87
2023/03/30 16:52:46;;;;;;;;;;;17.00;51.20;;;15.94;50.80;100080.91;12248727;19;19930;-87
2023/03/30 16:56:48;;;;;;;;;;;17.00;51.20;;;16.08;50.78;100113.91;12245504;19;19943;-87
2023/03/30 17:00:51;;;;;;;;;;;17.00;51.30;;;16.04;50.96;100107.25;12246789;19;20684;-88
2023/03/30 17:04:53;;;;;;;;;;;17.00;51.30;;;16.06;50.94;100121.13;12244407;19;19926;-88
2023/03/30 17:08:54;;;;;;;;;;;17.00;51.30;;;16.14;50.98;100143.19;12241730;19;19979;-87
2023/03/30 17:12:56;;;;;;;;;;;17.00;51.40;;;16.11;50.90;100140.81;12245294;19;19919;-88
2023/03/30 17:16:57;;;;;;;;;;;17.00;51.40;;;16.10;51.08;100126.00;12250499;19;19928;-87
2023/03/30 17:20:59;;;;;;;;;;;17.00;51.50;;;16.01;51.20;100128.59;12251230;19;19919;-87
2023/03/30 17:25:01;;;;;;;;;;;17.00;51.50;;;15.87;50.98;100109.56;12251248;19;19919;-88
2023/03/30 17:29:03;;;;;;;;;;;17.00;51.40;;;16.03;51.02;100142.47;12247887;19;19918;-88
2023/03/30 17:33:09;;;;;;;;;;;17.00;51.40;;;16.05;51.16;100151.06;12251364;19;19923;-87
2023/03/30 17:37:11;;;;;;;;;;;17.00;51.80;;;15.94;51.30;100149.38;12250122;19;19918;-87
2023/03/30 17:41:13;;;;;;;;;;;17.00;51.50;;;16.06;50.99;100171.16;12249617;19;19914;-87
2023/03/30 17:45:17;;;;;;;;;;;17.00;51.40;;;15.97;51.10;100164.06;12247248;19;19915;-87
2023/03/30 17:49:19;;;;;;;;;;;17.00;51.40;;;15.98;51.23;100176.25;12245479;19;19919;-87
2023/03/30 17:53:22;;;;;;;;;;;16.90;51.30;;;15.77;51.08;100152.63;12249201;19;19922;-87
2023/03/30 17:57:24;;;;;;;;;;;16.90;51.40;;;15.89;51.38;100193.69;12247805;19;19907;-87
2023/03/30 18:01:25;;;;;;;;;;;16.90;51.30;;;15.70;51.18;100168.94;12245285;19;19942;-87
2023/03/30 18:05:29;;;;;;;;;;;16.80;51.40;;;15.77;51.22;100195.59;12248137;19;20357;-87
2023/03/30 18:09:31;;;;;;;;;;;16.80;51.30;;;15.71;51.18;100185.56;12245889;19;19926;-87
2023/03/30 18:13:32;;;;;;;;;;;16.70;51.30;;;15.63;51.26;100178.28;12246680;19;19915;-87
2023/03/30 18:17:34;;;;;;;;;;;16.70;51.50;;;15.61;51.37;100189.94;12247020;19;19923;-87
2023/03/30 18:21:35;;;;;;;;;;;16.60;51.80;;;15.44;51.20;100170.28;12246932;19;19922;-87
2023/03/30 18:25:37;;;;;;;;;;;16.60;51.30;;;15.45;51.39;100190.41;12246366;19;19907;-87
2023/03/30 18:29:38;;;;;;;;;;;16.50;51.30;;;15.36;51.23;100181.47;12244272;19;19937;-87
2023/03/30 18:33:40;;;;;;;;;;;16.40;51.30;;;15.33;51.31;100189.63;12245949;19;19915;-87
2023/03/30 18:37:42;;;;;;;;;;;16.40;51.40;;;15.35;51.33;100205.28;12244907;19;20411;-87
2023/03/30 18:41:43;;;;;;;;;;;16.40;51.40;;;15.16;51.67;100182.31;12243606;19;19942;-87